Latest Weather Observations for Port Hedland

IDW60801

Issued at 7:03 am WST Saturday 10 December 2022 (issued every 10 minutes, with the page automatically refreshed every 10 minutes)

About weather observations | Map of weather stations | Latest weather observations for WA | Other Formats
Station Details ID: 004032 Name: PORT HEDLAND AIRPORT Lat: -20.37 Lon: 118.63 Height: 6.4 m
Data from the previous 72 hours. | See also: Recent months at Port Hedland
Date/Time
WST
Temp
°C
App
Temp
°C
Dew
Point
°C
Rel
Hum
%
Delta-T
°C
Wind Press
QNH
hPa
Press
MSL
hPa
Rain since
9am
mm
Dir  Spd
km/h
Gust
km/h
Spd
kts
Gust
kts
10/07:00am 31.4 29.7 13.6 33 10.7 S 15 20 8 11 1009.0 1008.9 0.0
10/06:30am 29.1 28.5 14.5 41 8.8 SSW 11 17 6 9 1008.7 1008.6 0.0
10/06:00am 25.9 26.7 17.3 59 5.4 SW 9 11 5 6 1008.4 1008.3 0.0
10/05:30am 24.4 24.5 16.6 61 4.8 SW 11 13 6 7 1008.0 1007.9 0.0
10/05:00am 24.4 24.7 17.1 63 4.5 SW 11 13 6 7 1007.7 1007.6 0.0
10/04:30am 24.8 25.1 17.8 65 4.4 SW 13 15 7 8 1007.4 1007.3 0.0
10/04:00am 25.2 25.7 18.4 66 4.3 SW 13 15 7 8 1007.3 1007.2 0.0
10/03:30am 25.6 26.3 19.7 70 3.8 SW 15 17 8 9 1007.1 1007.0 0.0
10/03:00am 25.3 26.4 21.2 78 2.7 WSW 17 19 9 10 1006.9 1006.8 0.0
10/02:30am 25.4 26.6 21.5 79 2.6 WSW 17 19 9 10 1006.8 1006.7 0.0
10/02:00am 24.7 27.0 21.4 82 2.2 WSW 11 13 6 7 1006.9 1006.8 0.0
10/01:30am 25.1 28.0 21.0 78 2.7 WSW 7 11 4 6 1007.1 1007.0 0.0
10/01:00am 25.5 28.1 21.2 77 2.8 SW 9 11 5 6 1007.4 1007.3 0.0
10/12:30am 26.3 27.8 21.3 74 3.3 WSW 15 19 8 10 1007.5 1007.4 0.0
10/12:00am 27.0 28.2 21.5 72 3.7 WSW 17 20 9 11 1007.7 1007.6 0.0
 
Date/Time
WST
Temp
°C
App
Temp
°C
Dew
Point
°C
Rel
Hum
%
Delta-T
°C
Wind Press
QNH
hPa
Press
MSL
hPa
Rain since
9am
mm
Dir  Spd
km/h
Gust
km/h
Spd
kts
Gust
kts
09/11:30pm 27.5 28.7 21.5 70 4.0 W 17 20 9 11 1007.9 1007.8 0.0
09/11:00pm 27.5 28.6 22.0 72 3.7 W 19 22 10 12 1008.2 1008.1 0.0
09/10:30pm 28.1 28.7 22.1 70 4.0 W 22 30 12 16 1008.4 1008.3 0.0
09/10:00pm 28.0 29.4 22.5 72 3.7 W 19 22 10 12 1008.4 1008.3 0.0
09/09:30pm 28.1 29.8 22.3 70 3.9 WNW 17 20 9 11 1008.2 1008.1 0.0
09/09:00pm 28.4 28.8 21.7 67 4.5 W 22 28 12 15 1007.9 1007.8 0.0
09/08:30pm 28.8 28.3 20.8 62 5.3 W 24 30 13 16 1007.8 1007.7 0.0
09/08:00pm 29.1 28.9 20.5 59 5.7 WNW 22 28 12 15 1007.7 1007.6 0.0
09/07:30pm 29.6 30.0 21.0 60 5.7 WNW 20 24 11 13 1007.5 1007.4 0.0
09/07:00pm 30.4 30.6 20.6 55 6.5 WNW 20 22 11 12 1007.1 1007.0 0.0
09/06:30pm 31.9 32.0 19.9 49 7.9 NW 19 24 10 13 1006.8 1006.7 0.0
09/06:00pm 34.0 33.2 19.3 42 9.7 WNW 22 28 12 15 1006.3 1006.2 0.0
09/05:30pm 34.7 33.6 20.3 43 9.6 WNW 26 32 14 17 1006.0 1005.9 0.0
09/05:00pm 35.4 34.2 20.1 40 10.2 WNW 26 33 14 18 1005.9 1005.8 0.0
09/04:30pm 35.9 34.8 21.0 42 10.1 NW 28 33 15 18 1005.7 1005.6 0.0
09/04:00pm 36.7 34.8 20.1 38 11.2 NW 30 33 16 18 1005.7 1005.6 0.0
09/03:30pm 38.3 36.3 19.2 32 12.7 WNW 28 33 15 18 1005.6 1005.5 0.0
09/03:00pm 38.0 36.1 19.4 33 12.4 NW 28 35 15 19 1005.9 1005.8 0.0
09/02:30pm 37.0 35.0 19.9 36 11.4 NW 30 35 16 19 1006.1 1006.0 0.0
09/02:00pm 37.4 35.5 20.2 36 11.6 NW 30 39 16 21 1006.2 1006.1 0.0
09/01:30pm 37.4 35.8 20.7 38 11.3 NW 30 35 16 19 1006.3 1006.2 0.0
09/01:00pm 37.5 35.5 19.9 35 11.8 NW 30 39 16 21 1006.5 1006.4 0.0
09/12:30pm 36.9 35.5 21.1 40 10.7 NW 30 37 16 20 1006.9 1006.8 0.0
09/12:00pm 36.2 34.8 22.0 43 9.8 NW 32 41 17 22 1007.1 1007.0 0.0
09/11:30am 37.0 36.2 23.1 44 9.7 NW 32 39 17 21 1007.5 1007.4 0.0
09/11:00am 35.4 35.4 23.0 48 8.6 NW 28 35 15 19 1007.8 1007.7 0.0
09/10:30am 35.4 36.3 23.4 50 8.4 NW 24 30 13 16 1008.1 1008.0 0.0
09/10:00am 34.4 35.4 22.8 51 8.0 WNW 22 28 12 15 1008.3 1008.2 0.0
09/09:30am 35.8 38.4 22.7 46 9.1 WNW 13 20 7 11 1008.4 1008.3 0.0
09/09:00am 35.6 33.9 17.3 33 11.8 W 22 28 12 15 1008.6 1008.5 0.0
09/08:30am 33.7 33.3 19.0 42 9.6 WSW 19 24 10 13 1008.7 1008.6 0.0
09/08:00am 31.6 30.9 20.2 50 7.6 W 24 30 13 16 1008.5 1008.4 0.0
09/07:30am 29.8 29.6 21.2 60 5.7 WSW 24 32 13 17 1008.3 1008.2 0.0
09/07:00am 28.0 28.1 21.8 69 4.2 WSW 24 28 13 15 1008.4 1008.3 0.0
09/06:30am 26.4 27.5 22.3 78 2.8 WSW 20 26 11 14 1008.3 1008.2 0.0
09/06:00am 25.5 27.2 22.4 83 2.1 W 17 22 9 12 1008.0 1007.9 0.0
09/05:30am 24.8 26.2 22.5 87 1.5 W 19 24 10 13 1007.7 1007.6 0.0
09/05:00am 24.7 26.7 22.9 90 1.2 W 17 20 9 11 1007.4 1007.3 0.0
09/04:30am 24.8 27.2 23.0 90 1.2 W 15 20 8 11 1007.2 1007.1 0.0
09/04:00am 25.0 27.5 23.1 89 1.3 W 15 20 8 11 1007.1 1007.0 0.0
09/03:30am 25.1 27.1 23.0 88 1.4 W 17 20 9 11 1006.9 1006.8 0.0
09/03:00am 25.3 26.9 23.2 88 1.4 W 20 28 11 15 1006.8 1006.7 0.0
09/02:30am 25.5 27.1 23.2 87 1.6 W 20 28 11 15 1006.7 1006.6 0.0
09/02:00am 25.5 26.9 22.8 85 1.8 W 20 28 11 15 1006.8 1006.7 0.0
09/01:30am 25.8 26.5 22.9 84 2.0 W 24 32 13 17 1006.6 1006.5 0.0
09/01:00am 26.0 26.7 22.9 83 2.1 W 24 30 13 16 1006.8 1006.7 0.0
09/12:30am 26.0 26.9 22.7 82 2.2 W 22 30 12 16 1006.9 1006.8 0.0
09/12:00am 26.2 27.4 22.5 80 2.5 W 20 26 11 14 1007.2 1007.1 0.0
 
Date/Time
WST
Temp
°C
App
Temp
°C
Dew
Point
°C
Rel
Hum
%
Delta-T
°C
Wind Press
QNH
hPa
Press
MSL
hPa
Rain since
9am
mm
Dir  Spd
km/h
Gust
km/h
Spd
kts
Gust
kts
08/11:30pm 26.3 28.1 22.6 80 2.5 W 17 22 9 12 1007.4 1007.3 0.0
08/11:00pm 26.5 27.8 22.3 78 2.8 W 19 24 10 13 1007.7 1007.6 0.0
08/10:30pm 26.7 27.7 22.1 76 3.1 W 20 24 11 13 1007.8 1007.7 0.0
08/10:00pm 26.8 28.3 22.0 75 3.2 W 17 20 9 11 1007.9 1007.8 0.0
08/09:30pm 26.9 28.0 22.3 76 3.1 W 20 26 11 14 1007.7 1007.6 0.0
08/09:00pm 27.1 27.8 22.3 75 3.2 W 22 28 12 15 1007.5 1007.4 0.0
08/08:30pm 27.3 27.7 21.8 72 3.7 W 22 30 12 16 1007.2 1007.1 0.0
08/08:00pm 27.4 27.6 21.4 70 4.0 W 22 30 12 16 1006.9 1006.8 0.0
08/07:30pm 27.6 27.9 21.6 70 4.0 W 22 30 12 16 1006.8 1006.7 0.0
08/07:00pm 28.0 27.3 21.8 69 4.2 W 28 39 15 21 1006.4 1006.3 0.0
08/06:30pm 28.7 27.5 21.5 65 4.8 WNW 30 37 16 20 1006.1 1006.0 0.0
08/06:00pm 30.0 28.2 20.3 56 6.4 WNW 30 35 16 19 1005.8 1005.7 0.0
08/05:30pm 31.0 28.8 20.3 53 7.1 WNW 32 39 17 21 1005.5 1005.4 0.0
08/05:00pm 32.0 29.6 19.9 48 8.0 WNW 32 37 17 20 1005.3 1005.2 0.0
08/04:30pm 32.9 30.1 19.0 43 9.1 WNW 32 41 17 22 1005.2 1005.1 0.0
08/04:00pm 33.5 30.2 18.4 40 9.8 WNW 33 41 18 22 1005.1 1005.0 0.0
08/03:30pm 35.0 31.2 17.2 34 11.4 WNW 33 41 18 22 1005.0 1004.9 0.0
08/03:00pm 35.2 31.3 17.0 34 11.7 WNW 33 41 18 22 1005.1 1005.0 0.0
08/02:30pm 35.4 32.3 18.9 37 10.9 NW 33 43 18 23 1005.3 1005.2 0.0
08/02:00pm 35.4 32.3 18.5 37 11.1 NW 32 39 17 21 1005.7 1005.6 0.0
08/01:30pm 34.4 33.1 20.7 44 9.2 NW 28 35 15 19 1006.0 1005.9 0.0
08/01:00pm 33.2 31.3 21.0 48 8.2 NW 32 41 17 22 1006.4 1006.3 0.0
08/12:30pm 34.1 32.9 21.5 47 8.5 NW 30 37 16 20 1006.7 1006.6 0.0
08/12:00pm 33.8 32.8 21.9 49 8.1 NW 30 35 16 19 1007.0 1006.9 0.0
08/11:30am 33.8 32.2 21.6 49 8.3 NW 32 39 17 21 1007.3 1007.2 0.0
08/11:00am 33.8 33.4 21.6 49 8.3 NW 26 33 14 18 1007.5 1007.4 0.0
08/10:30am 35.2 34.9 20.3 41 10.0 NNW 22 30 12 16 1007.7 1007.6 0.0
08/10:00am 34.8 34.9 21.1 44 9.3 NNW 22 28 12 15 1007.8 1007.7 0.0
08/09:30am 36.4 34.6 13.2 25 14.1 WSW 15 26 8 14 1008.0 1007.9 0.0
08/09:00am 35.2 33.6 15.0 30 12.6 WSW 17 20 9 11 1008.1 1008.0 0.0
08/08:30am 33.4 32.7 16.3 36 10.8 WSW 15 20 8 11 1008.1 1008.0 0.0
08/08:00am 32.1 31.0 17.2 41 9.5 WSW 19 22 10 12 1008.0 1007.9 0.0
08/07:30am 30.1 29.1 17.5 46 8.0 WSW 19 22 10 12 1007.9 1007.8 0.0
08/07:00am 28.6 28.0 18.4 54 6.5 WSW 19 22 10 12 1007.7 1007.6 0.0
08/06:30am 26.3 26.0 19.2 65 4.6 WSW 19 22 10 12 1007.4 1007.3 0.0
08/06:00am 24.9 26.1 19.9 74 3.2 WSW 13 19 7 10 1007.0 1006.9 0.0
08/05:30am 23.7 25.0 20.2 81 2.3 W 13 15 7 8 1006.7 1006.6 0.0
08/05:00am 23.4 24.3 20.0 81 2.2 W 15 17 8 9 1006.3 1006.2 0.0
08/04:30am 23.5 23.8 19.6 79 2.5 W 17 20 9 11 1006.0 1005.9 0.0
08/04:00am 23.4 25.2 19.5 79 2.5 WNW 9 13 5 7 1005.8 1005.7 0.0
08/03:30am 23.4 24.1 18.9 76 2.9 WSW 13 17 7 9 1005.6 1005.5 0.0
08/03:00am 24.3 24.7 19.1 73 3.3 WSW 15 17 8 9 1005.5 1005.4 0.0
08/02:30am 24.8 25.2 19.0 70 3.7 WSW 15 19 8 10 1005.3 1005.2 0.0
08/02:00am 24.5 25.1 18.7 70 3.7 WSW 13 17 7 9 1005.4 1005.3 0.0
08/01:30am 25.3 25.1 18.5 66 4.3 WSW 17 20 9 11 1005.4 1005.3 0.0
08/01:00am 26.3 25.5 18.4 61 5.0 WSW 20 26 11 14 1005.5 1005.4 0.0
08/12:30am 26.9 25.7 19.3 63 4.9 W 24 32 13 17 1005.7 1005.6 0.0
08/12:00am 26.9 26.1 20.0 66 4.5 W 24 30 13 16 1005.8 1005.7 0.0
 
Date/Time
WST
Temp
°C
App
Temp
°C
Dew
Point
°C
Rel
Hum
%
Delta-T
°C
Wind Press
QNH
hPa
Press
MSL
hPa
Rain since
9am
mm
Dir  Spd
km/h
Gust
km/h
Spd
kts
Gust
kts
07/11:30pm 27.0 26.1 19.9 65 4.6 W 24 32 13 17 1006.0 1005.9 0.0
07/11:00pm 27.2 26.3 19.8 64 4.8 W 24 33 13 18 1006.2 1006.1 0.0
07/10:30pm 27.4 26.6 20.0 64 4.8 W 24 35 13 19 1006.3 1006.2 0.0
07/10:00pm 27.6 26.5 19.4 61 5.3 W 24 33 13 18 1006.2 1006.1 0.0
07/09:30pm 27.5 26.5 19.6 62 5.1 W 24 32 13 17 1006.1 1006.0 0.0
07/09:00pm 27.7 25.7 18.4 57 6.0 W 26 33 14 18 1005.8 1005.7 0.0
07/08:30pm 28.0 25.8 18.7 57 6.0 W 28 39 15 21 1005.8 1005.7 0.0
07/08:00pm 28.2 25.1 18.3 55 6.3 W 32 39 17 21 1005.5 1005.4 0.0
07/07:30pm 28.6 25.8 18.1 53 6.7 W 30 39 16 21 1005.2 1005.1 0.0
07/07:00pm 29.2 25.7 17.4 49 7.5 W 32 39 17 21 1004.8 1004.7 0.0
07/06:30pm 30.2 26.3 16.9 44 8.4 W 33 43 18 23 1004.5 1004.4 0.0
07/06:00pm 31.2 27.8 18.2 46 8.4 W 33 43 18 23 1004.2 1004.1 0.0
07/05:30pm 32.2 28.7 18.0 42 9.1 W 33 43 18 23 1004.1 1004.0 0.0
07/05:00pm 33.2 28.2 17.0 38 10.3 WNW 39 50 21 27 1003.9 1003.8 0.0
07/04:30pm 34.6 29.3 16.4 33 11.5 WNW 39 48 21 26 1003.8 1003.7 0.0
07/04:00pm 34.4 28.7 16.3 34 11.5 WNW 41 50 22 27 1003.8 1003.7 0.0
07/03:30pm 35.0 29.1 16.8 34 11.6 WNW 43 54 23 29 1004.0 1003.9 0.0
07/03:00pm 35.0 30.1 18.1 36 11.0 WNW 41 52 22 28 1004.3 1004.2 0.0
07/02:30pm 34.4 29.6 19.2 40 10.0 WNW 43 52 23 28 1004.5 1004.4 0.0
07/02:00pm 34.7 29.8 19.5 40 10.1 WNW 44 54 24 29 1004.8 1004.7 0.0
07/01:30pm 35.2 30.0 18.3 36 11.0 WNW 43 54 23 29 1004.9 1004.8 0.0
07/01:00pm 35.7 30.5 17.4 33 11.8 WNW 41 50 22 27 1005.2 1005.1 0.0
07/12:30pm 36.5 31.9 18.1 33 12.0 WNW 39 46 21 25 1005.4 1005.3 0.0
07/12:00pm 36.6 33.0 18.6 34 11.9 WNW 35 46 19 25 1005.5 1005.4 0.0
07/11:30am 35.8 32.7 19.7 39 10.7 NW 35 43 19 23 1005.9 1005.8 0.0
07/11:00am 36.9 33.8 18.9 34 11.9 NW 33 39 18 21 1006.1 1006.0 0.0
07/10:30am 35.5 34.4 22.4 46 9.0 NW 32 41 17 22 1006.4 1006.3 0.0
07/10:00am 34.8 33.9 22.8 49 8.3 NW 32 41 17 22 1006.6 1006.5 0.0
07/09:30am 34.2 33.9 22.6 50 8.0 NW 28 33 15 18 1006.7 1006.6 0.0
07/09:00am 34.2 34.3 21.9 48 8.4 WNW 24 32 13 17 1006.8 1006.7 0.0
07/08:30am 34.4 33.4 19.6 41 9.8 W 24 30 13 16 1006.8 1006.7 0.0
07/08:00am 32.8 32.1 20.3 47 8.3 W 24 32 13 17 1006.7 1006.6 0.0
07/07:30am 31.4 30.5 20.7 53 7.1 W 26 32 14 17 1006.5 1006.4 0.0

Other formats

Comma delimited format used in spreadsheet applications
http://www.bom.gov.au/fwo/IDW60801/IDW60801.94312.axf

JavaScript Object Notation format (JSON) in row-major order
http://www.bom.gov.au/fwo/IDW60801/IDW60801.94312.json

Data quality

Most of these data are generated automatically and are frequently updated. Quality checks on data are not normally performed. It is possible for incorrect values to appear. Refer to information at About Latest Weather Observations and please check the disclaimer before using these data.